Dewey R — WDC3093 — position and weather

sailwx.info

Track history (hours):
 
Tides and Currents Weather Stations Pressure Air Temp Water Temp Dewpoint Dewpoint Depression Visibility Wind Speed Wind Dir Waves Ship Positions

Dewey R

Owner: Apex Towing Company a division of Apex Oil Company, St. Louis, MO. More information available from US FCC via Universal Licensing System and Coast Guard Vessel Documentation Center.

Last reported at 2018-Jul-26 13:51 UTC. Time now 2018-Aug-14 07:03 UTC.
Position N 32°44' W 091°05'.
Warning: this ship's position is 18 days out of date.

Length 45 m; draft 3 m.

Type: Tow > 200 m length. MMSI: 367002540.

Date/timePositionNaut miles runAvg speedWind from/ knotsBaromVisibWave heightAir tempDewpointWater temp
2018-Jul-26 13:51N 32°44' W 091°05'5 2.4
2018-Jul-26 11:55N 32°40' W 091°07'3 5.0
2018-Jul-26 11:25N 32°38' W 091°09'2 5.9
2018-Jul-26 11:00N 32°36' W 091°08'3 5.3
2018-Jul-26 10:30N 32°34' W 091°06'3 5.0
2018-Jul-26 10:00N 32°31' W 091°06'3 5.7
2018-Jul-26 09:31N 32°29' W 091°07'3 5.4
2018-Jul-26 09:00N 32°27' W 091°04'3 5.4
2018-Jul-26 08:30N 32°26' W 091°01'2 4.7
2018-Jul-26 08:00N 32°24' W 090°60'2 4.7
2018-Jul-26 07:30N 32°22' W 091°00'3 5.4
2018-Jul-26 07:00N 32°21' W 090°57'3 5.0
2018-Jul-26 06:30N 32°20' W 090°54'3 5.3
2018-Jul-26 06:00N 32°18' W 090°56'3 5.5
2018-Jul-26 05:31N 32°16' W 090°58'3 5.0
2018-Jul-26 05:00N 32°14' W 090°59'3 5.4
2018-Jul-26 04:30N 32°11' W 090°60'3 5.2
2018-Jul-26 04:01N 32°08' W 091°00'2 4.4
2018-Jul-26 03:30N 32°07' W 091°03'2 3.3
2018-Jul-26 02:58N 32°08' W 091°05'1 1.8
2018-Jul-26 02:31N 32°08' W 091°05'  
2018-Jul-20 03:10N 32°03' W 091°03'1 8.1
2018-Jul-20 03:00N 32°04' W 091°04'4 7.7
2018-Jul-20 02:30N 32°08' W 091°06'4 8.3
2018-Jul-20 02:00N 32°07' W 091°01'4 8.5
2018-Jul-20 01:30N 32°11' W 090°60'4 8.9
2018-Jul-20 01:00N 32°16' W 090°58'4 7.4
2018-Jul-20 00:30N 32°18' W 090°55'0 0.2
2018-Jul-20 00:00N 32°18' W 090°55'0 0.0
2018-Jul-19 23:30N 32°18' W 090°55'0 0.0
2018-Jul-19 23:00N 32°18' W 090°55'0 0.0
2018-Jul-19 22:30N 32°18' W 090°55'0 0.0
2018-Jul-19 22:00N 32°18' W 090°55'0 0.0
2018-Jul-19 21:30N 32°18' W 090°55'0 0.0
2018-Jul-19 21:00N 32°18' W 090°55'0 0.0
2018-Jul-19 20:31N 32°18' W 090°55'0 0.0
2018-Jul-19 20:00N 32°18' W 090°55'1 2.5
2018-Jul-19 19:30N 32°19' W 090°54'3 5.7
2018-Jul-19 19:00N 32°21' W 090°57'3 6.2
2018-Jul-19 18:30N 32°22' W 091°00'4 8.0
2018-Jul-19 18:00N 32°26' W 091°01'611.2
2018-Jul-19 17:30N 32°29' W 091°07'5 9.6
2018-Jul-19 17:01N 32°34' W 091°06'5 9.2
2018-Jul-19 16:29N 32°38' W 091°09'  
Track history (hours):
 
Tides and Currents Weather Stations Pressure Air Temp Water Temp Dewpoint Dewpoint Depression Visibility Wind Speed Wind Dir Waves Ship Positions

Dewey R

Owner: Apex Towing Company a division of Apex Oil Company, St. Louis, MO. More information available from US FCC via Universal Licensing System and Coast Guard Vessel Documentation Center.

Last reported at 2018-Jul-26 13:51 UTC. Time now 2018-Aug-14 07:03 UTC.
Position N 32°44' W 091°05'.
Warning: this ship's position is 18 days out of date.

Length 45 m; draft 3 m.

Type: Tow > 200 m length. MMSI: 367002540.

Date/timePositionNaut miles runAvg speedWind from/ knotsBaromVisibWave heightAir tempDewpointWater temp
2018-Jul-26 13:51N 32°44' W 091°05'5 2.4
2018-Jul-26 11:55N 32°40' W 091°07'3 5.0
2018-Jul-26 11:25N 32°38' W 091°09'2 5.9
2018-Jul-26 11:00N 32°36' W 091°08'3 5.3
2018-Jul-26 10:30N 32°34' W 091°06'3 5.0
2018-Jul-26 10:00N 32°31' W 091°06'3 5.7
2018-Jul-26 09:31N 32°29' W 091°07'3 5.4
2018-Jul-26 09:00N 32°27' W 091°04'3 5.4
2018-Jul-26 08:30N 32°26' W 091°01'2 4.7
2018-Jul-26 08:00N 32°24' W 090°60'2 4.7
2018-Jul-26 07:30N 32°22' W 091°00'3 5.4
2018-Jul-26 07:00N 32°21' W 090°57'3 5.0
2018-Jul-26 06:30N 32°20' W 090°54'3 5.3
2018-Jul-26 06:00N 32°18' W 090°56'3 5.5
2018-Jul-26 05:31N 32°16' W 090°58'3 5.0
2018-Jul-26 05:00N 32°14' W 090°59'3 5.4
2018-Jul-26 04:30N 32°11' W 090°60'3 5.2
2018-Jul-26 04:01N 32°08' W 091°00'2 4.4
2018-Jul-26 03:30N 32°07' W 091°03'2 3.3
2018-Jul-26 02:58N 32°08' W 091°05'1 1.8
2018-Jul-26 02:31N 32°08' W 091°05'  
2018-Jul-20 03:10N 32°03' W 091°03'1 8.1
2018-Jul-20 03:00N 32°04' W 091°04'4 7.7
2018-Jul-20 02:30N 32°08' W 091°06'4 8.3
2018-Jul-20 02:00N 32°07' W 091°01'4 8.5
2018-Jul-20 01:30N 32°11' W 090°60'4 8.9
2018-Jul-20 01:00N 32°16' W 090°58'4 7.4
2018-Jul-20 00:30N 32°18' W 090°55'0 0.2
2018-Jul-20 00:00N 32°18' W 090°55'0 0.0
2018-Jul-19 23:30N 32°18' W 090°55'0 0.0
2018-Jul-19 23:00N 32°18' W 090°55'0 0.0
2018-Jul-19 22:30N 32°18' W 090°55'0 0.0
2018-Jul-19 22:00N 32°18' W 090°55'0 0.0
2018-Jul-19 21:30N 32°18' W 090°55'0 0.0
2018-Jul-19 21:00N 32°18' W 090°55'0 0.0
2018-Jul-19 20:31N 32°18' W 090°55'0 0.0
2018-Jul-19 20:00N 32°18' W 090°55'1 2.5
2018-Jul-19 19:30N 32°19' W 090°54'3 5.7
2018-Jul-19 19:00N 32°21' W 090°57'3 6.2
2018-Jul-19 18:30N 32°22' W 091°00'4 8.0
2018-Jul-19 18:00N 32°26' W 091°01'611.2
2018-Jul-19 17:30N 32°29' W 091°07'5 9.6
2018-Jul-19 17:01N 32°34' W 091°06'5 9.2
2018-Jul-19 16:29N 32°38' W 091°09'  

Dump ship's entire track history